EGLL

London Heathrow Airport

London, United Kingdom
METAR EGLL 151920Z AUTO 32008KT 9999 SCT019 BKN024 05/02 Q1007
Observed Flight Rules
Dec-15 @ 19:20 UTC (25 minutes ago) Marginal Visual Flight Rules
Wind Visibility Clouds
320° at 8 knots 10,000+ meters
  • Scattered at 1,900' AGL
  • Broken at 2,400' AGL
Temperatures Readings
Current 5°C / 41°F
Dewpoint 2°C / 36°F
Humidity 81%
Altimeter 29.73" Hg
Pressure 1007 hPa
Elevation 24
METAR EGLL 151920Z AUTO 32008KT 9999 SCT019 BKN024 05/02 Q1007
Observed Flight Rules
Dec-15 @ 19:20 UTC
(25 minutes ago)
MVFR
Wind Visibility
320° at 8 knots 10,000+ meters
Clouds
  • Scattered at 1,900' AGL
  • Broken at 2,400' AGL
Temperature Dewpoint
5°C / 41°F 2°C / 36°F
Humidity Altimeter Pressure
81% 29.73" Hg 1007 hPa